Time;durP1;ratioP1;P1;durP2;ratioP2;P2;SDS_P1;SDS_P2;PMS_P1;PMS_P2;Temp;Humidity;BMP_temperature;BMP_pressure;BME280_temperature;BME280_humidity;BME280_pressure;Samples;Min_cycle;Max_cycle;Signal;HPM_P1;HPM_P2
2021/09/03 00:00:18;;;;;;;17.80;11.40;;;;;;;16.17;77.33;102294.53;5073028;28;20040;-58
2021/09/03 00:02:47;;;;;;;19.45;12.13;;;;;;;16.10;77.63;102287.66;5054876;28;20098;-58
2021/09/03 00:05:17;;;;;;;17.05;10.73;;;;;;;16.12;77.21;102289.03;5073082;28;20060;-59
2021/09/03 00:07:45;;;;;;;18.10;11.75;;;;;;;16.11;77.45;102286.53;5064784;28;20087;-58
2021/09/03 00:10:15;;;;;;;17.67;11.40;;;;;;;16.05;77.80;102290.38;5073040;28;20478;-57
2021/09/03 00:12:43;;;;;;;17.45;11.55;;;;;;;16.06;77.85;102300.28;5055226;28;20053;-59
2021/09/03 00:15:13;;;;;;;23.00;11.95;;;;;;;16.00;77.65;102296.69;5072745;28;20491;-59
2021/09/03 00:17:41;;;;;;;18.75;12.18;;;;;;;16.01;77.88;102295.56;5072697;28;20032;-59
2021/09/03 00:20:10;;;;;;;18.00;11.25;;;;;;;16.06;77.95;102300.28;5072254;28;20040;-57
2021/09/03 00:22:38;;;;;;;16.85;11.73;;;;;;;16.03;77.78;102293.38;5072558;28;20423;-58
2021/09/03 00:25:07;;;;;;;16.10;11.23;;;;;;;16.04;78.02;102294.22;5072127;28;20052;-60
2021/09/03 00:27:35;;;;;;;19.35;11.07;;;;;;;16.03;77.92;102292.56;5072356;28;20049;-58
2021/09/03 00:30:05;;;;;;;17.13;11.43;;;;;;;15.89;78.01;102287.53;5054489;28;20047;-58
2021/09/03 00:32:33;;;;;;;17.23;11.00;;;;;;;15.93;78.35;102280.44;5072663;28;20033;-58
2021/09/03 00:35:01;;;;;;;16.88;10.68;;;;;;;15.95;78.33;102281.00;5054346;28;20071;-58
2021/09/03 00:37:30;;;;;;;16.80;11.38;;;;;;;16.04;78.17;102278.53;5054406;28;20410;-58
2021/09/03 00:39:57;;;;;;;20.90;11.77;;;;;;;16.09;77.67;102267.56;5072072;28;20128;-58
2021/09/03 00:42:26;;;;;;;17.17;10.52;;;;;;;16.08;77.27;102268.66;5027769;28;20455;-57
2021/09/03 00:44:54;;;;;;;21.00;11.70;;;;;;;16.08;77.40;102260.41;5040898;28;20415;-59
2021/09/03 00:47:22;;;;;;;19.67;11.65;;;;;;;15.95;77.72;102264.50;5054217;28;20049;-56
2021/09/03 00:49:59;;;;;;;18.88;11.57;;;;;;;15.87;78.54;102258.69;5054208;28;20040;-58
2021/09/03 00:52:47;;;;;;;19.25;11.25;;;;;;;15.81;78.12;102257.03;5070929;28;20041;-59
2021/09/03 00:55:15;;;;;;;18.67;11.15;;;;;;;15.64;78.82;102263.50;5037310;28;20131;-59
2021/09/03 00:58:03;;;;;;;19.95;11.65;;;;;;;15.65;79.10;102256.91;5069305;28;20048;-59
2021/09/03 01:00:31;;;;;;;17.08;11.05;;;;;;;15.56;80.01;102255.75;5072289;28;20394;-58
2021/09/03 01:03:19;;;;;;;19.20;11.35;;;;;;;15.67;79.87;102256.63;5069530;28;20120;-59
2021/09/03 01:06:07;;;;;;;17.33;11.02;;;;;;;15.82;79.08;102247.66;5069202;28;20044;-59
2021/09/03 01:08:54;;;;;;;18.30;11.07;;;;;;;15.75;78.76;102248.75;5054679;28;20052;-59
2021/09/03 01:11:42;;;;;;;19.55;11.80;;;;;;;15.63;78.93;102237.09;5069549;28;20056;-57
2021/09/03 01:14:25;;;;;;;17.95;11.40;;;;;;;15.68;79.29;102242.66;5054319;28;20048;-58
2021/09/03 01:17:13;;;;;;;17.33;10.90;;;;;;;15.81;78.85;102237.78;5070292;28;20086;-58
2021/09/03 01:20:01;;;;;;;17.70;11.05;;;;;;;15.72;78.79;102238.28;5069120;28;20043;-58
2021/09/03 01:22:48;;;;;;;18.17;11.45;;;;;;;15.76;78.84;102233.09;5069495;28;20109;-59
2021/09/03 01:25:19;;;;;;;19.67;11.32;;;;;;;15.72;78.85;102237.47;5053289;28;20495;-59
2021/09/03 01:28:07;;;;;;;18.73;11.43;;;;;;;15.67;78.90;102229.97;5069032;28;20048;-58
2021/09/03 01:30:55;;;;;;;18.08;11.13;;;;;;;15.57;79.35;102232.69;5069186;28;20049;-57
2021/09/03 01:33:42;;;;;;;23.88;11.60;;;;;;;15.57;79.61;102232.69;5054594;28;20052;-60
2021/09/03 01:36:16;;;;;;;20.08;11.60;;;;;;;15.56;79.39;102233.75;5072119;28;20109;-59
2021/09/03 01:38:44;;;;;;;17.83;11.35;;;;;;;15.49;79.51;102222.19;5071407;28;20048;-59
2021/09/03 01:41:11;;;;;;;17.05;10.77;;;;;;;15.49;79.70;102227.69;5071691;28;20044;-58
2021/09/03 01:43:39;;;;;;;17.73;11.45;;;;;;;15.50;80.28;102221.94;5071535;28;20501;-60
2021/09/03 01:46:07;;;;;;;21.08;12.30;;;;;;;15.46;80.15;102222.72;5069886;28;20044;-57
2021/09/03 01:48:35;;;;;;;17.55;11.77;;;;;;;15.29;80.77;102218.25;5051069;28;20112;-59
2021/09/03 01:51:03;;;;;;;20.10;11.25;;;;;;;15.24;81.21;102215.47;5051291;28;20033;-60
2021/09/03 01:53:30;;;;;;;17.17;11.27;;;;;;;15.20;81.23;102217.13;5054894;28;20402;-59
2021/09/03 01:55:59;;;;;;;17.48;10.63;;;;;;;15.16;81.81;102213.22;5037349;28;20048;-58
2021/09/03 01:58:28;;;;;;;21.08;11.60;;;;;;;15.24;81.25;102204.47;5037669;28;20628;-58
2021/09/03 02:00:56;;;;;;;17.95;11.32;;;;;;;15.27;81.03;102209.47;5055427;28;20083;-58
2021/09/03 02:03:25;;;;;;;23.48;12.13;;;;;;;15.26;81.56;102207.78;5037493;28;20444;-58
2021/09/03 02:05:53;;;;;;;18.50;10.90;;;;;;;15.34;80.90;102200.97;5036853;28;20055;-58
2021/09/03 02:08:21;;;;;;;17.45;11.38;;;;;;;15.34;80.62;102204.56;5037177;28;20088;-59
2021/09/03 02:10:54;;;;;;;22.40;11.90;;;;;;;15.37;80.93;102207.84;5037207;28;20098;-57
2021/09/03 02:13:35;;;;;;;19.58;11.70;;;;;;;15.31;80.87;102207.00;5037285;28;20052;-58
2021/09/03 02:16:23;;;;;;;21.25;11.55;;;;;;;15.31;80.74;102205.06;5054936;28;20036;-60
2021/09/03 02:18:58;;;;;;;19.02;11.95;;;;;;;15.27;80.87;102198.47;5036777;28;20415;-58
2021/09/03 02:21:41;;;;;;;16.40;11.48;;;;;;;15.33;80.84;102202.06;5036835;28;20044;-59
2021/09/03 02:24:22;;;;;;;15.40;10.98;;;;;;;15.37;80.37;102194.97;5036440;28;20048;-59
2021/09/03 02:27:10;;;;;;;16.67;10.93;;;;;;;15.30;80.78;102202.63;5053325;28;20049;-59
2021/09/03 02:29:57;;;;;;;18.92;11.38;;;;;;;15.18;81.00;102200.06;5037802;28;20048;-59
2021/09/03 02:32:45;;;;;;;21.08;11.60;;;;;;;15.12;81.44;102192.88;5051930;28;20122;-58
2021/09/03 02:35:32;;;;;;;19.30;11.60;;;;;;;15.07;81.42;102193.66;5051907;28;20466;-57
2021/09/03 02:38:00;;;;;;;20.85;11.27;;;;;;;15.08;81.68;102197.25;5036269;28;20399;-59
2021/09/03 02:40:28;;;;;;;19.80;11.73;;;;;;;15.15;81.50;102197.84;5054981;28;20041;-58
2021/09/03 02:42:56;;;;;;;18.65;11.80;;;;;;;15.12;81.30;102188.22;5054600;28;20522;-58
2021/09/03 02:45:24;;;;;;;19.88;12.02;;;;;;;15.12;81.62;102182.72;5037046;28;20037;-59
2021/09/03 02:47:52;;;;;;;17.67;11.55;;;;;;;15.09;81.33;102185.19;5054687;28;20048;-58
2021/09/03 02:50:19;;;;;;;20.27;11.80;;;;;;;15.05;81.45;102179.38;5054390;28;20044;-57
2021/09/03 02:52:47;;;;;;;18.58;11.50;;;;;;;15.07;81.89;102179.13;5054440;28;20060;-58
2021/09/03 02:55:15;;;;;;;17.40;11.35;;;;;;;15.08;81.42;102167.88;5054570;28;20048;-58
2021/09/03 02:57:43;;;;;;;19.42;12.63;;;;;;;15.10;81.20;102167.59;5054218;28;20048;-58
2021/09/03 03:00:11;;;;;;;19.73;12.60;;;;;;;15.01;81.28;102158.22;5054311;28;20045;-58
2021/09/03 03:02:39;;;;;;;20.27;11.93;;;;;;;14.87;82.28;102161.44;5054282;28;20048;-60
2021/09/03 03:05:07;;;;;;;22.30;12.95;;;;;;;14.93;82.52;102165.03;5054001;28;20531;-59
2021/09/03 03:07:35;;;;;;;21.17;12.65;;;;;;;14.88;82.26;102160.34;5036205;28;20476;-59
2021/09/03 03:10:05;;;;;;;20.88;11.95;;;;;;;14.79;82.53;102153.72;5054376;28;20139;-59
2021/09/03 03:12:34;;;;;;;22.27;11.73;;;;;;;14.81;82.86;102151.50;5040501;28;20045;-59
2021/09/03 03:15:02;;;;;;;24.58;13.00;;;;;;;14.87;82.48;102153.22;5054299;28;20515;-59
2021/09/03 03:17:32;;;;;;;21.08;11.88;;;;;;;14.96;82.17;102149.94;5053798;28;20480;-59
2021/09/03 03:20:04;;;;;;;21.13;12.40;;;;;;;15.01;81.87;102144.50;5035103;28;20059;-59
2021/09/03 03:22:39;;;;;;;17.65;11.30;;;;;;;15.05;81.56;102151.13;5020610;28;20044;-58
2021/09/03 03:25:23;;;;;;;18.33;11.48;;;;;;;15.06;81.68;102141.81;5035760;28;20056;-58
2021/09/03 03:28:11;;;;;;;18.63;12.52;;;;;;;15.09;81.33;102135.78;5051112;28;20052;-58
2021/09/03 03:30:38;;;;;;;19.02;13.15;;;;;;;15.10;81.41;102140.16;5035911;28;20051;-58
2021/09/03 03:33:26;;;;;;;21.38;12.13;;;;;;;15.13;81.16;102132.22;5050997;28;20407;-58
2021/09/03 03:35:56;;;;;;;21.80;13.35;;;;;;;15.18;81.01;102139.66;5035303;28;20053;-59
2021/09/03 03:38:44;;;;;;;17.90;12.30;;;;;;;15.22;80.74;102138.03;5050462;28;20060;-57
2021/09/03 03:41:31;;;;;;;17.60;12.35;;;;;;;15.23;80.64;102136.13;5051164;28;20048;-59
2021/09/03 03:44:20;;;;;;;21.60;11.77;;;;;;;15.25;80.27;102129.28;5050794;28;20053;-57
2021/09/03 03:46:50;;;;;;;18.58;12.15;;;;;;;15.25;79.76;102129.28;5035369;28;20059;-59
2021/09/03 03:49:38;;;;;;;21.13;12.13;;;;;;;15.21;79.57;102136.38;5049830;28;20048;-59
2021/09/03 03:52:06;;;;;;;21.55;12.95;;;;;;;15.15;79.83;102136.63;5035453;28;20065;-58
2021/09/03 03:54:34;;;;;;;21.65;13.20;;;;;;;15.05;80.39;102129.97;5035289;28;20132;-58
2021/09/03 03:57:01;;;;;;;22.67;13.07;;;;;;;14.99;80.40;102125.56;5053071;28;20033;-59
2021/09/03 03:59:30;;;;;;;26.80;13.45;;;;;;;14.93;80.89;102129.34;5053175;28;20052;-59
2021/09/03 04:01:58;;;;;;;21.73;12.88;;;;;;;14.92;81.17;102130.47;5052738;28;20484;-58
2021/09/03 04:04:25;;;;;;;21.02;13.40;;;;;;;14.89;81.21;102134.56;5052665;28;20041;-57
2021/09/03 04:06:53;;;;;;;20.38;13.50;;;;;;;14.87;81.49;102135.91;5052946;28;20063;-58
2021/09/03 04:09:21;;;;;;;19.08;12.65;;;;;;;14.88;81.49;102134.81;5052932;28;20048;-56
2021/09/03 04:11:50;;;;;;;20.80;12.50;;;;;;;14.83;81.66;102132.03;5053176;28;20060;-59
2021/09/03 04:14:18;;;;;;;21.80;14.07;;;;;;;14.75;81.71;102125.13;5052643;28;20052;-59
2021/09/03 04:16:46;;;;;;;19.60;13.00;;;;;;;14.67;82.24;102125.63;5052871;28;20043;-59
2021/09/03 04:19:14;;;;;;;24.00;13.82;;;;;;;14.61;82.55;102126.69;5052084;28;20041;-56
2021/09/03 04:21:42;;;;;;;20.27;14.02;;;;;;;14.51;82.62;102123.84;5034814;28;20098;-59
2021/09/03 04:24:10;;;;;;;22.08;13.55;;;;;;;14.44;83.45;102122.13;5052627;28;20037;-60
2021/09/03 04:26:38;;;;;;;20.92;13.55;;;;;;;14.50;83.95;102123.00;5034854;28;20037;-57
2021/09/03 04:29:06;;;;;;;21.70;14.07;;;;;;;14.57;82.77;102122.81;5052417;28;20124;-58
2021/09/03 04:31:36;;;;;;;22.98;13.02;;;;;;;14.59;82.70;102123.38;5034571;28;20068;-59
2021/09/03 04:34:04;;;;;;;21.60;13.25;;;;;;;14.62;82.19;102122.84;5052322;28;20071;-60
2021/09/03 04:36:32;;;;;;;19.48;13.43;;;;;;;14.56;82.40;102115.69;5052319;28;20044;-58
2021/09/03 04:39:01;;;;;;;22.48;13.75;;;;;;;14.45;82.97;102126.50;5018425;28;20147;-58
2021/09/03 04:41:48;;;;;;;20.58;13.00;;;;;;;14.47;83.17;102129.81;5051276;28;20404;-60
2021/09/03 04:44:24;;;;;;;21.27;13.93;;;;;;;14.51;82.71;102123.84;5034261;28;20495;-60
2021/09/03 04:47:12;;;;;;;21.40;13.43;;;;;;;14.44;83.17;102122.13;5049388;28;20055;-60
2021/09/03 04:49:41;;;;;;;17.20;12.50;;;;;;;14.45;82.92;102114.72;5034024;28;20102;-60
2021/09/03 04:52:29;;;;;;;21.90;14.23;;;;;;;14.48;82.59;102119.72;5049634;28;20048;-59
2021/09/03 04:55:16;;;;;;;22.02;14.65;;;;;;;14.42;82.62;102112.53;5051762;28;20538;-59
2021/09/03 04:58:04;;;;;;;22.45;13.65;;;;;;;14.36;83.40;102111.66;5049584;28;20400;-58
2021/09/03 05:00:33;;;;;;;22.83;14.75;;;;;;;14.39;82.90;102116.63;5033784;28;20496;-59
2021/09/03 05:03:21;;;;;;;22.63;14.38;;;;;;;14.39;83.09;102116.63;5049015;28;20084;-59
2021/09/03 05:05:49;;;;;;;22.08;13.85;;;;;;;14.36;83.27;102113.56;5034267;28;20515;-60
2021/09/03 05:08:37;;;;;;;21.75;14.07;;;;;;;14.31;83.35;102119.84;5049198;28;20072;-59
2021/09/03 05:11:05;;;;;;;20.60;13.70;;;;;;;14.27;83.90;102114.03;5034153;28;20048;-60
2021/09/03 05:13:53;;;;;;;22.02;13.80;;;;;;;14.28;83.81;102120.34;5049405;28;20513;-59
2021/09/03 05:16:40;;;;;;;22.17;14.38;;;;;;;14.26;83.87;102117.03;5049286;28;20056;-59
2021/09/03 05:19:28;;;;;;;18.77;13.00;;;;;;;14.33;84.06;102117.66;5050335;28;20380;-58
2021/09/03 05:21:56;;;;;;;24.17;14.90;;;;;;;14.40;83.28;102109.22;5052085;28;20037;-59
2021/09/03 05:24:24;;;;;;;20.67;14.13;;;;;;;14.36;83.25;102110.81;5051823;28;20045;-61
2021/09/03 05:26:51;;;;;;;23.60;15.55;;;;;;;14.28;83.78;102112.94;5035125;28;20083;-60
2021/09/03 05:29:19;;;;;;;19.65;12.95;;;;;;;14.33;84.30;102106.69;5038079;28;20040;-60
2021/09/03 05:31:46;;;;;;;17.48;12.18;;;;;;;14.43;83.95;102108.66;5055751;28;20045;-57
2021/09/03 05:34:14;;;;;;;20.83;14.10;;;;;;;14.41;83.61;102106.22;5055904;28;20056;-59
2021/09/03 05:36:41;;;;;;;21.05;14.55;;;;;;;14.36;83.74;102111.66;5055603;28;20053;-58
2021/09/03 05:39:09;;;;;;;23.33;14.73;;;;;;;14.30;84.17;102109.94;5055562;28;20082;-59
2021/09/03 05:41:36;;;;;;;19.88;14.00;;;;;;;14.28;84.50;102109.38;5057296;28;20446;-57
2021/09/03 05:44:04;;;;;;;21.30;15.57;;;;;;;14.30;84.37;102111.88;5055569;28;20046;-59
2021/09/03 05:46:32;;;;;;;19.92;13.90;;;;;;;14.30;84.38;102120.09;5055017;28;20059;-59
2021/09/03 05:49:00;;;;;;;20.48;13.95;;;;;;;14.19;85.34;102110.94;5045833;28;20055;-56
2021/09/03 05:51:28;;;;;;;24.35;16.77;;;;;;;14.21;85.38;102114.25;5055303;28;20033;-58
2021/09/03 05:53:57;;;;;;;24.88;15.27;;;;;;;14.25;85.07;102126.34;5046485;28;20045;-59
2021/09/03 05:56:25;;;;;;;26.55;14.75;;;;;;;14.30;85.34;102122.84;5041021;28;20043;-61
2021/09/03 05:58:54;;;;;;;22.63;15.95;;;;;;;14.37;85.11;102124.28;5054857;28;20163;-60
2021/09/03 06:01:22;;;;;;;20.20;13.73;;;;;;;14.43;84.92;102120.50;5037093;28;20052;-59
2021/09/03 06:04:08;;;;;;;30.48;16.77;;;;;;;14.49;84.57;102116.69;4938103;28;10000751;-60
2021/09/03 06:06:55;;;;;;;25.27;16.92;;;;;;;14.47;84.75;102126.25;5037652;28;20415;-59
2021/09/03 06:09:43;;;;;;;27.95;18.08;;;;;;;14.50;84.65;102123.00;5036390;28;20103;-61
2021/09/03 06:12:11;;;;;;;24.10;16.95;;;;;;;14.49;84.88;102122.16;5052604;28;20047;-60
2021/09/03 06:14:58;;;;;;;27.42;16.48;;;;;;;14.53;85.22;102121.63;5050014;28;20083;-60
2021/09/03 06:17:27;;;;;;;25.75;16.70;;;;;;;14.59;84.67;102121.44;5052452;28;20083;-62
2021/09/03 06:20:20;;;;;;;30.40;21.77;;;;;;;14.62;84.75;102125.59;5049877;28;20519;-59
2021/09/03 06:22:47;;;;;;;24.48;15.98;;;;;;;14.61;84.72;102126.69;5052856;28;20049;-61
2021/09/03 06:25:35;;;;;;;21.48;15.15;;;;;;;14.58;85.25;102129.97;5048918;28;20057;-60
2021/09/03 06:28:13;;;;;;;22.30;16.20;;;;;;;14.64;85.14;102128.88;5034862;28;20098;-62
2021/09/03 06:31:00;;;;;;;22.48;15.68;;;;;;;14.70;85.04;102128.66;5048829;28;20099;-59
2021/09/03 06:33:28;;;;;;;23.80;16.63;;;;;;;14.74;85.01;102131.69;5051631;28;20041;-61
2021/09/03 06:36:15;;;;;;;25.33;17.50;;;;;;;14.74;85.11;102133.63;5048393;28;20045;-61
2021/09/03 06:39:03;;;;;;;24.42;17.30;;;;;;;14.74;85.47;102131.69;5050735;28;20514;-62
2021/09/03 06:41:33;;;;;;;25.13;17.88;;;;;;;14.76;85.61;102131.44;5032785;28;20138;-54
2021/09/03 06:44:18;;;;;;;25.73;17.00;;;;;;;14.72;85.49;102125.69;5051031;28;20063;-57
2021/09/03 06:46:45;;;;;;;25.38;16.10;;;;;;;14.71;86.09;102132.22;5051303;28;20049;-55
2021/09/03 06:49:13;;;;;;;22.35;14.98;;;;;;;14.73;85.98;102127.31;5051058;28;20041;-57
2021/09/03 06:51:40;;;;;;;31.45;21.73;;;;;;;14.77;86.08;102133.09;5036915;28;20039;-59
2021/09/03 06:54:08;;;;;;;27.45;18.25;;;;;;;14.82;85.92;102136.72;5053156;28;20056;-52
2021/09/03 06:56:36;;;;;;;24.88;16.70;;;;;;;14.88;86.00;102134.81;5052212;28;20514;-55
2021/09/03 06:59:03;;;;;;;23.92;16.27;;;;;;;14.97;85.38;102140.66;5052753;28;20048;-54
2021/09/03 07:01:31;;;;;;;24.55;16.92;;;;;;;15.00;85.61;102132.69;5035207;28;20514;-53
2021/09/03 07:03:59;;;;;;;29.67;18.08;;;;;;;15.04;85.37;102133.81;5052649;28;20048;-54
2021/09/03 07:06:27;;;;;;;26.17;16.55;;;;;;;15.09;85.33;102130.28;5052449;28;20037;-54
2021/09/03 07:08:55;;;;;;;24.33;16.75;;;;;;;15.06;85.38;102131.63;5052729;28;20060;-52
2021/09/03 07:11:23;;;;;;;26.38;17.98;;;;;;;15.06;86.04;102130.81;5053006;28;20041;-56
2021/09/03 07:13:51;;;;;;;26.25;16.90;;;;;;;15.13;85.58;102131.41;5052299;28;20153;-56
2021/09/03 07:16:19;;;;;;;26.90;17.95;;;;;;;15.19;85.82;102135.81;5052891;28;20041;-59
2021/09/03 07:18:47;;;;;;;23.10;15.27;;;;;;;15.25;85.43;102140.25;5052441;28;20047;-60
2021/09/03 07:21:15;;;;;;;27.95;19.13;;;;;;;15.28;85.53;102134.22;5034463;28;20045;-58
2021/09/03 07:23:44;;;;;;;28.75;19.40;;;;;;;15.28;85.43;102123.22;5034460;28;20045;-58
2021/09/03 07:26:34;;;;;;;31.55;19.05;;;;;;;15.27;85.63;102124.34;5088918;27;20394;-59
2021/09/03 07:29:21;;;;;;;28.88;17.83;;;;;;;15.31;85.75;102113.63;5086716;28;20101;-57
2021/09/03 07:31:49;;;;;;;29.25;18.20;;;;;;;15.37;86.14;102111.72;5071316;28;20049;-58
2021/09/03 07:34:37;;;;;;;30.00;20.33;;;;;;;15.40;85.56;102113.94;5086457;28;20461;-54
2021/09/03 07:37:24;;;;;;;25.75;18.48;;;;;;;15.46;86.04;102112.88;5086379;28;20082;-57
2021/09/03 07:40:12;;;;;;;31.70;21.60;;;;;;;15.53;85.88;102118.94;5088918;28;20048;-58
2021/09/03 07:43:06;;;;;;;26.58;17.00;;;;;;;15.60;85.67;102114.00;5086032;28;20121;-58
2021/09/03 07:45:37;;;;;;;25.92;16.80;;;;;;;15.64;85.48;102114.31;5089083;28;20045;-58
2021/09/03 07:48:24;;;;;;;27.40;19.00;;;;;;;15.68;85.41;102119.00;5086737;28;20421;-57
2021/09/03 07:51:12;;;;;;;29.83;18.23;;;;;;;15.71;85.26;102114.91;5078664;28;20049;-59
2021/09/03 07:54:00;;;;;;;28.25;18.77;;;;;;;15.74;85.91;102115.19;5065837;28;20804;-59
2021/09/03 07:56:47;;;;;;;31.15;19.08;;;;;;;15.81;85.52;102119.59;5080626;28;20499;-57
2021/09/03 07:59:23;;;;;;;30.52;19.77;;;;;;;15.86;85.75;102116.88;5070485;28;20415;-57
2021/09/03 08:02:11;;;;;;;28.67;19.48;;;;;;;15.89;86.03;102113.56;5057466;28;20445;-59
2021/09/03 08:05:05;;;;;;;27.80;18.38;;;;;;;15.93;86.03;102109.19;5088502;28;20056;-58
2021/09/03 08:07:53;;;;;;;27.98;19.08;;;;;;;16.00;86.21;102111.66;5086112;28;20578;-57
2021/09/03 08:10:40;;;;;;;29.50;18.05;;;;;;;16.05;85.71;102118.00;5072923;28;20047;-56
2021/09/03 08:13:28;;;;;;;31.05;19.10;;;;;;;16.09;85.54;102116.34;5071438;28;20040;-57
2021/09/03 08:16:02;;;;;;;29.63;19.45;;;;;;;16.14;85.75;102107.28;5070434;28;20070;-55
2021/09/03 08:18:49;;;;;;;28.52;17.88;;;;;;;16.24;85.43;102114.72;5086610;28;20090;-57
2021/09/03 08:21:37;;;;;;;30.10;19.77;;;;;;;16.36;85.29;102115.25;5087599;28;20044;-52
2021/09/03 08:24:25;;;;;;;28.33;18.08;;;;;;;16.37;84.96;102111.41;5089703;28;20040;-58
2021/09/03 08:26:52;;;;;;;28.65;18.63;;;;;;;16.37;84.48;102103.97;5090200;28;20048;-57
2021/09/03 08:29:20;;;;;;;31.65;20.08;;;;;;;16.44;85.42;102106.44;5089793;28;20052;-52
2021/09/03 08:31:48;;;;;;;30.48;20.17;;;;;;;16.50;84.66;102102.59;5070343;28;20087;-58
2021/09/03 08:34:16;;;;;;;26.08;17.95;;;;;;;16.55;84.39;102097.09;5088287;28;20053;-58
2021/09/03 08:36:44;;;;;;;28.95;17.73;;;;;;;16.57;84.56;102089.38;5081322;28;20036;-57
2021/09/03 08:39:12;;;;;;;28.80;19.30;;;;;;;16.61;84.38;102089.63;5074055;28;20032;-58
2021/09/03 08:41:39;;;;;;;29.25;19.30;;;;;;;16.67;84.80;102094.03;5075026;28;20040;-58
2021/09/03 08:44:07;;;;;;;30.70;20.48;;;;;;;16.72;84.04;102094.03;5074814;28;20060;-59
2021/09/03 08:46:35;;;;;;;29.25;19.50;;;;;;;16.75;84.25;102085.22;5074633;28;20045;-57
2021/09/03 08:49:04;;;;;;;29.10;18.38;;;;;;;16.76;84.23;102097.03;5056775;28;20039;-59
2021/09/03 08:51:33;;;;;;;26.70;16.85;;;;;;;16.81;84.70;102097.91;5056362;28;20071;-58
2021/09/03 08:54:01;;;;;;;28.92;18.50;;;;;;;16.90;83.76;102095.38;5074169;28;20072;-58
2021/09/03 08:56:28;;;;;;;23.48;14.45;;;;;;;16.96;83.36;102107.22;5074277;28;20040;-55
2021/09/03 08:58:57;;;;;;;29.33;17.83;;;;;;;17.01;83.45;102105.28;5029003;28;20487;-57
2021/09/03 09:01:25;;;;;;;29.92;19.33;;;;;;;17.08;83.25;102104.97;5074642;28;20655;-58
2021/09/03 09:04:16;;;;;;;26.60;18.30;;;;;;;17.17;82.29;102110.72;5074456;28;20091;-58
2021/09/03 09:07:04;;;;;;;27.40;18.35;;;;;;;17.19;82.46;102111.25;5055763;28;20068;-56
2021/09/03 09:09:35;;;;;;;31.05;19.10;;;;;;;17.29;81.76;102108.47;5055964;28;20139;-57
2021/09/03 09:12:18;;;;;;;27.33;18.15;;;;;;;17.33;81.39;102112.31;5055955;28;20040;-59
2021/09/03 09:15:20;;;;;;;23.73;16.17;;;;;;;17.43;81.25;102108.69;5055947;28;20060;-57
2021/09/03 09:18:07;;;;;;;23.92;15.95;;;;;;;17.56;79.53;102110.03;4971793;28;20054;-56
2021/09/03 09:21:14;;;;;;;25.52;17.30;;;;;;;17.57;80.03;102108.91;4957134;28;20113;-58
2021/09/03 09:24:09;;;;;;;;;;;;;;;17.58;80.01;102107.78;4956854;28;20151;-58
2021/09/03 09:26:58;;;;;;;23.35;16.08;;;;;;;17.65;80.09;102102.78;4970677;28;19929;-58
2021/09/03 09:29:42;;;;;;;27.25;16.10;;;;;;;17.78;79.28;102104.09;4956643;28;20054;-58
2021/09/03 09:32:30;;;;;;;20.30;14.25;;;;;;;17.83;78.36;102104.91;4972540;28;20057;-53
2021/09/03 09:35:19;;;;;;;20.95;14.65;;;;;;;17.91;79.03;102105.41;4972523;28;20063;-54
2021/09/03 09:37:53;;;;;;;24.58;15.30;;;;;;;18.00;76.12;102103.69;4971952;28;20097;-53
2021/09/03 09:40:58;;;;;;;22.30;15.20;;;;;;;18.00;76.22;102092.66;4970536;28;20057;-54
2021/09/03 09:43:45;;;;;;;26.08;14.30;;;;;;;18.00;76.49;102095.44;4956443;28;20049;-57
2021/09/03 09:46:33;;;;;;;22.98;15.40;;;;;;;18.02;76.94;102090.44;4970091;28;20054;-59
2021/09/03 09:49:04;;;;;;;26.45;15.35;;;;;;;18.00;76.82;102087.97;4971598;28;20095;-55
2021/09/03 09:51:45;;;;;;;22.85;13.65;;;;;;;18.02;76.46;102091.28;4971821;28;20047;-57
2021/09/03 09:54:22;;;;;;;21.02;11.68;;;;;;;18.09;76.11;102086.25;5005243;28;20052;-54
2021/09/03 09:56:56;;;;;;;33.05;14.82;;;;;;;18.10;76.28;102084.31;5066508;28;20495;-60
2021/09/03 09:59:25;;;;;;;17.38;12.52;;;;;;;18.13;76.51;102080.97;5073184;28;20406;-57
2021/09/03 10:01:58;;;;;;;21.40;13.70;;;;;;;18.26;75.79;102082.25;5073142;28;20068;-56
2021/09/03 10:04:29;;;;;;;25.30;13.57;;;;;;;18.38;74.00;102081.88;5055224;28;20410;-58
2021/09/03 10:07:00;;;;;;;24.10;15.10;;;;;;;18.42;74.20;102077.41;5072303;28;20054;-55
2021/09/03 10:09:38;;;;;;;25.65;15.70;;;;;;;18.48;73.91;102077.06;4731200;28;10000778;-56
2021/09/03 10:12:06;;;;;;;21.95;13.48;;;;;;;18.47;74.24;102080.97;5049226;28;20245;-56
2021/09/03 10:14:35;;;;;;;23.20;14.77;;;;;;;18.48;73.82;102076.25;5070749;28;20051;-56
2021/09/03 10:17:03;;;;;;;19.33;13.75;;;;;;;18.50;73.88;102071.28;5070460;28;20098;-56
2021/09/03 10:19:35;;;;;;;23.33;13.63;;;;;;;18.49;73.69;102072.38;5036444;28;20090;-58
2021/09/03 10:22:11;;;;;;;22.45;14.73;;;;;;;18.55;73.02;102067.63;5035304;28;20056;-57
2021/09/03 10:24:43;;;;;;;20.50;15.10;;;;;;;18.62;73.23;102063.41;5052372;28;20057;-58
2021/09/03 10:27:11;;;;;;;20.70;13.13;;;;;;;18.73;73.16;102062.16;5052324;28;20037;-55
2021/09/03 10:29:41;;;;;;;23.20;14.88;;;;;;;18.76;73.14;102060.81;5070633;28;20040;-57
2021/09/03 10:32:35;;;;;;;24.38;15.98;;;;;;;18.88;71.77;102054.88;5052768;28;20060;-58
2021/09/03 10:35:19;;;;;;;26.02;16.23;;;;;;;18.92;71.77;102053.16;5069834;28;20053;-57
2021/09/03 10:37:57;;;;;;;23.95;16.13;;;;;;;18.97;71.08;102050.34;5022012;28;20094;-59
2021/09/03 10:40:43;;;;;;;32.53;20.10;;;;;;;18.94;71.37;102048.16;5052457;28;20125;-59
2021/09/03 10:43:45;;;;;;;31.27;17.85;;;;;;;19.00;70.95;102052.53;5052281;28;20613;-59
2021/09/03 10:46:43;;;;;;;40.03;25.33;;;;;;;19.01;71.63;102056.09;5067649;28;20052;-57
2021/09/03 10:49:30;;;;;;;24.63;16.40;;;;;;;19.01;71.00;102045.06;5066650;28;20419;-56
2021/09/03 10:52:10;;;;;;;43.95;24.55;;;;;;;19.08;71.48;102043.56;5052646;28;20045;-58
2021/09/03 10:54:58;;;;;;;50.80;26.70;;;;;;;19.14;70.85;102038.81;5067105;28;20048;-56
2021/09/03 10:57:58;;;;;;;82.95;42.53;;;;;;;19.13;72.13;102037.16;5069135;28;20044;-58
2021/09/03 11:00:46;;;;;;;26.33;18.13;;;;;;;19.29;71.09;102026.72;5067122;28;20418;-60
2021/09/03 11:03:43;;;;;;;49.00;28.38;;;;;;;19.39;71.12;102028.53;5052242;28;20040;-59
2021/09/03 11:06:23;;;;;;;40.60;23.75;;;;;;;19.38;70.09;102030.47;5037717;28;20052;-59
2021/09/03 11:09:14;;;;;;;24.92;15.98;;;;;;;19.39;68.97;102023.81;5067479;28;20047;-59
2021/09/03 11:11:44;;;;;;;25.15;15.30;;;;;;;19.47;70.98;102017.63;5063851;28;20056;-59
2021/09/03 11:14:15;;;;;;;26.80;17.08;;;;;;;19.56;69.65;102015.81;5070072;28;20041;-57
2021/09/03 11:16:45;;;;;;;23.42;15.48;;;;;;;19.56;69.16;102007.53;5069936;28;20044;-58
2021/09/03 11:19:18;;;;;;;20.98;14.20;;;;;;;19.61;68.80;102008.59;5068010;28;20064;-58
2021/09/03 11:21:49;;;;;;;45.00;24.20;;;;;;;19.57;69.60;102000.88;5060294;28;20067;-57
2021/09/03 11:24:31;;;;;;;55.20;29.85;;;;;;;19.54;70.42;101995.13;5069154;28;20052;-57
2021/09/03 11:27:01;;;;;;;45.67;25.05;;;;;;;19.48;70.75;101988.88;5069742;28;20046;-59
2021/09/03 11:29:35;;;;;;;25.50;16.38;;;;;;;19.61;68.96;101997.53;5063119;28;20059;-59
2021/09/03 11:32:14;;;;;;;25.20;14.98;;;;;;;19.69;68.95;101988.56;5049069;28;20120;-58
2021/09/03 11:35:04;;;;;;;20.87;13.40;;;;;;;19.74;69.30;101988.47;5042361;28;20733;-58
2021/09/03 11:37:34;;;;;;;30.10;17.50;;;;;;;19.82;69.30;101985.03;5049315;28;20283;-59
2021/09/03 11:40:19;;;;;;;35.58;20.10;;;;;;;19.97;68.50;101982.00;5023643;28;20045;-60
2021/09/03 11:43:01;;;;;;;25.08;13.65;;;;;;;20.16;66.68;101979.19;5015013;28;20125;-60
2021/09/03 11:45:38;;;;;;;28.02;16.30;;;;;;;20.21;65.64;101981.03;5030687;28;20072;-59
2021/09/03 11:48:10;;;;;;;23.02;14.48;;;;;;;20.11;66.02;101984.00;5014583;28;20033;-59